Time;durP1;ratioP1;P1;durP2;ratioP2;P2;SDS_P1;SDS_P2;PMS_P1;PMS_P2;Temp;Humidity;BMP_temperature;BMP_pressure;BME280_temperature;BME280_humidity;BME280_pressure;Samples;Min_cycle;Max_cycle;Signal;HPM_P1;HPM_P2
2021/07/01 00:01:54;;;;;;;41.63;24.25;;;;;;;13.61;90.01;101351.91;10541691;28;20052;-59
2021/07/01 00:06:56;;;;;;;32.78;19.23;;;;;;;13.62;89.46;101343.06;10541347;28;20048;-59
2021/07/01 00:12:00;;;;;;;28.23;17.90;;;;;;;13.59;89.12;101351.16;10540122;28;20050;-59
2021/07/01 00:17:02;;;;;;;28.13;18.15;;;;;;;13.67;89.32;101342.81;10540465;28;20040;-59
2021/07/01 00:22:05;;;;;;;24.15;14.85;;;;;;;13.76;87.53;101342.22;10541119;28;20048;-59
2021/07/01 00:27:07;;;;;;;23.55;16.08;;;;;;;13.46;90.08;101344.94;10540238;28;20040;-59
2021/07/01 00:32:09;;;;;;;35.50;20.35;;;;;;;13.69;89.30;101340.91;10540876;28;20050;-59
2021/07/01 00:37:12;;;;;;;39.15;20.80;;;;;;;13.51;90.79;101337.63;10539930;28;20507;-59
2021/07/01 00:42:14;;;;;;;30.77;21.05;;;;;;;13.47;89.69;101344.84;10539891;28;20129;-59
2021/07/01 00:47:16;;;;;;;36.88;19.33;;;;;;;13.45;88.71;101335.34;10540316;28;20051;-59
2021/07/01 00:52:19;;;;;;;37.72;22.63;;;;;;;13.49;90.22;101350.84;10540324;28;20123;-59
2021/07/01 00:57:23;;;;;;;23.70;16.30;;;;;;;13.40;89.99;101342.69;10539276;28;20517;-59
2021/07/01 01:02:25;;;;;;;27.98;15.57;;;;;;;13.45;88.70;101349.38;10538079;28;20504;-59
2021/07/01 01:07:28;;;;;;;39.13;18.30;;;;;;;13.42;89.15;101348.72;10538831;28;20060;-59
2021/07/01 01:12:31;;;;;;;31.90;17.20;;;;;;;13.34;90.66;101352.63;10540198;28;20086;-59
2021/07/01 01:17:33;;;;;;;37.72;19.88;;;;;;;13.34;90.15;101346.53;10539722;28;20040;-59
2021/07/01 01:22:37;;;;;;;48.28;25.10;;;;;;;13.33;90.37;101344.81;10539559;28;20048;-59
2021/07/01 01:27:39;;;;;;;41.92;21.55;;;;;;;13.31;89.63;101341.41;10539017;28;20059;-59
2021/07/01 01:32:41;;;;;;;35.13;18.30;;;;;;;13.18;89.73;101347.44;10537601;28;20040;-59
2021/07/01 01:37:44;;;;;;;33.78;19.98;;;;;;;13.20;89.57;101349.97;10539159;28;20085;-59
2021/07/01 01:42:46;;;;;;;38.63;18.27;;;;;;;13.27;90.09;101340.75;10538969;28;20052;-60
2021/07/01 01:47:49;;;;;;;29.13;16.63;;;;;;;13.31;89.97;101342.25;10538514;28;20040;-59
2021/07/01 01:52:52;;;;;;;29.60;15.57;;;;;;;13.17;89.38;101343.09;10538685;28;20052;-59
2021/07/01 01:57:55;;;;;;;21.55;13.50;;;;;;;13.32;88.17;101335.28;10545186;28;20055;-59
2021/07/01 02:03:00;;;;;;;34.85;17.25;;;;;;;13.23;90.30;101333.16;10546625;28;20131;-59
2021/07/01 02:08:10;;;;;;;28.02;13.75;;;;;;;13.16;89.75;101338.78;10546143;28;20040;-59
2021/07/01 02:13:12;;;;;;;27.02;14.68;;;;;;;13.28;89.50;101339.84;10545840;28;20051;-59
2021/07/01 02:18:15;;;;;;;23.33;12.93;;;;;;;13.23;89.76;101346.28;10545275;28;20048;-59
2021/07/01 02:23:17;;;;;;;16.77;9.30;;;;;;;13.04;88.87;101342.13;10544049;28;20510;-59
2021/07/01 02:28:19;;;;;;;19.95;9.68;;;;;;;13.04;89.91;101346.56;10544876;28;20044;-60
2021/07/01 02:33:22;;;;;;;27.83;11.55;;;;;;;13.09;89.90;101355.84;10545039;28;20085;-59
2021/07/01 02:38:24;;;;;;;18.27;9.68;;;;;;;13.16;89.47;101346.69;10544458;28;20051;-59
2021/07/01 02:43:27;;;;;;;17.48;8.38;;;;;;;13.14;88.07;101351.16;10544892;28;20048;-59
2021/07/01 02:48:29;;;;;;;22.67;11.52;;;;;;;13.01;89.95;101344.94;10544029;28;20399;-59
2021/07/01 02:53:32;;;;;;;27.52;11.55;;;;;;;13.11;88.81;101356.63;10544091;28;20055;-59
2021/07/01 02:58:34;;;;;;;20.15;9.02;;;;;;;13.00;89.07;101351.97;10544088;28;20055;-59
2021/07/01 03:03:36;;;;;;;30.67;12.98;;;;;;;12.94;90.55;101339.19;10543613;28;20507;-59
2021/07/01 03:08:40;;;;;;;22.88;12.65;;;;;;;12.88;90.02;101343.97;10542691;28;20052;-59
2021/07/01 03:13:43;;;;;;;37.63;16.80;;;;;;;13.10;90.42;101348.81;10543417;28;20044;-59
2021/07/01 03:18:50;;;;;;;30.73;15.60;;;;;;;12.97;90.63;101341.63;10542616;28;20506;-59
2021/07/01 03:23:53;;;;;;;28.30;15.40;;;;;;;12.82;90.68;101338.13;10542001;28;20051;-59
2021/07/01 03:28:55;;;;;;;21.85;12.23;;;;;;;12.94;88.09;101340.97;10542396;28;20503;-59
2021/07/01 03:33:57;;;;;;;22.58;13.27;;;;;;;13.09;88.85;101336.59;10542802;28;20044;-59
2021/07/01 03:39:03;;;;;;;23.80;14.30;;;;;;;13.01;89.43;101342.31;10542088;28;20051;-59
2021/07/01 03:44:07;;;;;;;22.83;11.85;;;;;;;12.99;89.55;101350.31;10542487;28;20056;-60
2021/07/01 03:49:12;;;;;;;42.88;14.63;;;;;;;12.94;89.23;101351.50;10541861;28;20044;-59
2021/07/01 03:54:14;;;;;;;25.45;12.93;;;;;;;13.01;88.88;101356.31;10541836;28;20047;-59
2021/07/01 03:59:17;;;;;;;32.63;16.50;;;;;;;12.87;88.98;101358.06;10540217;28;20040;-59
2021/07/01 04:04:19;;;;;;;28.65;13.85;;;;;;;12.64;90.04;101357.56;10541116;28;20052;-59
2021/07/01 04:09:21;;;;;;;22.85;12.07;;;;;;;12.70;89.11;101359.88;10541257;28;20051;-59
2021/07/01 04:14:24;;;;;;;31.40;13.55;;;;;;;12.62;89.21;101354.19;10540565;28;20500;-59
2021/07/01 04:19:26;;;;;;;24.95;15.38;;;;;;;12.60;90.94;101361.31;10540170;28;20040;-59
2021/07/01 04:24:28;;;;;;;25.05;14.45;;;;;;;12.87;90.02;101365.94;10540443;28;20058;-59
2021/07/01 04:29:31;;;;;;;25.73;14.40;;;;;;;12.72;89.84;101357.16;10540433;28;20044;-60
2021/07/01 04:34:33;;;;;;;20.02;12.70;;;;;;;12.73;89.33;101362.31;10540234;28;20052;-59
2021/07/01 04:39:36;;;;;;;17.85;10.88;;;;;;;12.81;89.48;101365.34;10540212;28;20097;-59
2021/07/01 04:44:38;;;;;;;24.77;12.85;;;;;;;12.88;88.78;101373.72;10539698;28;20416;-59
2021/07/01 04:49:40;;;;;;;26.50;14.25;;;;;;;12.72;89.39;101381.63;10540189;28;20039;-59
2021/07/01 04:54:42;;;;;;;32.45;15.85;;;;;;;12.82;89.49;101380.16;10540157;28;20067;-59
2021/07/01 04:59:45;;;;;;;28.58;12.73;;;;;;;12.79;88.33;101377.75;10540070;28;20043;-59
2021/07/01 05:04:47;;;;;;;32.58;13.55;;;;;;;12.87;88.86;101373.81;10539736;28;20052;-59
2021/07/01 05:09:49;;;;;;;20.10;11.27;;;;;;;12.80;88.73;101363.66;10540229;28;20044;-59
2021/07/01 05:14:52;;;;;;;28.58;14.85;;;;;;;12.80;90.13;101360.19;10539009;28;20048;-59
2021/07/01 05:19:54;;;;;;;31.65;14.93;;;;;;;12.56;89.72;101371.16;10539784;28;20048;-59
2021/07/01 05:24:56;;;;;;;30.27;13.82;;;;;;;12.86;88.35;101357.22;10537997;28;20048;-59
2021/07/01 05:29:59;;;;;;;21.85;12.32;;;;;;;12.54;88.19;101359.03;10541892;28;20040;-59
2021/07/01 05:35:06;;;;;;;21.10;11.65;;;;;;;12.85;88.58;101359.94;10545843;28;20476;-59
2021/07/01 05:40:09;;;;;;;23.67;10.75;;;;;;;12.66;88.06;101358.38;10547190;28;20044;-58
2021/07/01 05:45:12;;;;;;;27.73;13.52;;;;;;;12.62;89.70;101356.81;10546617;28;20402;-59
2021/07/01 05:50:14;;;;;;;27.45;11.85;;;;;;;12.64;89.63;101361.06;10546583;28;20055;-59
2021/07/01 05:55:17;;;;;;;28.35;12.35;;;;;;;12.73;89.33;101359.69;10544847;28;20048;-59
2021/07/01 06:00:19;;;;;;;25.85;11.27;;;;;;;12.88;87.99;101365.84;10546514;28;20044;-59
2021/07/01 06:05:21;;;;;;;21.23;11.50;;;;;;;12.79;87.08;101358.47;10545942;28;20048;-60
2021/07/01 06:10:25;;;;;;;25.85;11.07;;;;;;;12.96;88.25;101361.00;10545761;28;20048;-59
2021/07/01 06:15:28;;;;;;;25.10;11.48;;;;;;;12.85;90.06;101373.06;10544768;28;20044;-60
2021/07/01 06:20:30;;;;;;;23.73;11.65;;;;;;;12.99;89.37;101355.56;10545616;28;20044;-59
2021/07/01 06:25:32;;;;;;;21.35;10.93;;;;;;;13.02;89.49;101359.78;10545161;28;20075;-59
2021/07/01 06:30:37;;;;;;;19.75;11.65;;;;;;;13.02;88.23;101359.78;10544373;28;20127;-60
2021/07/01 06:35:40;;;;;;;20.38;10.93;;;;;;;13.09;88.36;101360.25;10544863;28;20399;-59
2021/07/01 06:40:46;;;;;;;26.88;11.00;;;;;;;13.24;88.67;101358.50;10544569;28;20048;-59
2021/07/01 06:45:49;;;;;;;18.92;10.23;;;;;;;13.30;87.69;101363.41;10544887;28;20056;-59
2021/07/01 06:50:58;;;;;;;25.95;12.27;;;;;;;13.24;89.09;101358.50;10544452;28;20040;-59
2021/07/01 06:56:00;;;;;;;21.77;11.35;;;;;;;13.19;87.42;101364.88;10544254;28;20044;-59
2021/07/01 07:01:03;;;;;;;19.90;10.63;;;;;;;13.38;87.95;101366.44;10542735;28;20047;-59
2021/07/01 07:06:06;;;;;;;20.50;11.35;;;;;;;13.21;89.03;101367.41;10543577;28;20408;-60
2021/07/01 07:11:09;;;;;;;23.00;9.90;;;;;;;13.31;87.56;101375.59;10543548;28;20059;-59
2021/07/01 07:16:11;;;;;;;25.35;9.90;;;;;;;13.48;87.46;101377.25;10542939;28;20055;-59
2021/07/01 07:21:17;;;;;;;23.85;9.98;;;;;;;13.31;86.69;101378.25;10541571;28;20048;-59
2021/07/01 07:26:23;;;;;;;20.15;10.02;;;;;;;13.58;87.20;101386.28;10541709;28;20048;-59
2021/07/01 07:31:29;;;;;;;29.17;11.98;;;;;;;13.48;88.55;101387.78;10542599;28;20484;-59
2021/07/01 07:36:34;;;;;;;21.02;11.23;;;;;;;13.50;86.48;101383.25;10542436;28;20123;-59
2021/07/01 07:41:36;;;;;;;18.20;11.68;;;;;;;13.47;86.10;101383.47;10542656;28;20127;-59
2021/07/01 07:46:39;;;;;;;32.30;14.45;;;;;;;13.40;87.63;101383.00;10541684;28;20040;-60
2021/07/01 07:51:41;;;;;;;24.05;13.15;;;;;;;13.50;88.35;101386.75;10540857;28;20044;-59
2021/07/01 07:56:46;;;;;;;27.67;15.30;;;;;;;13.35;89.32;101378.00;10540420;28;20056;-59
2021/07/01 08:01:50;;;;;;;25.17;12.93;;;;;;;13.41;89.14;101381.19;10540342;28;20048;-59
2021/07/01 08:06:54;;;;;;;29.83;15.18;;;;;;;13.33;88.76;101382.50;10540610;28;20131;-59
2021/07/01 08:11:58;;;;;;;31.05;14.23;;;;;;;13.49;88.04;101385.06;10541177;28;20055;-59
2021/07/01 08:17:00;;;;;;;25.90;13.07;;;;;;;13.45;88.65;101386.19;10541639;28;20052;-59
2021/07/01 08:22:03;;;;;;;24.83;11.25;;;;;;;13.67;87.67;101388.38;10540679;28;20492;-60
2021/07/01 08:27:05;;;;;;;28.25;13.10;;;;;;;13.61;89.38;101391.38;10540299;28;20044;-59
2021/07/01 08:32:09;;;;;;;22.73;12.77;;;;;;;13.65;88.64;101398.16;10539231;28;20055;-60
2021/07/01 08:37:11;;;;;;;23.25;11.13;;;;;;;13.48;88.49;101406.19;10539454;28;20047;-59
2021/07/01 08:42:14;;;;;;;20.48;10.07;;;;;;;13.65;86.55;101410.44;10539363;28;20056;-59
2021/07/01 08:47:18;;;;;;;30.85;12.05;;;;;;;13.85;88.47;101419.75;10539963;28;20051;-60
2021/07/01 08:52:33;;;;;;;30.35;11.48;;;;;;;13.87;88.53;101421.38;10539693;28;20404;-60
2021/07/01 08:57:54;;;;;;;28.40;11.73;;;;;;;13.69;87.15;101417.22;10539638;28;20480;-59
2021/07/01 09:03:07;;;;;;;31.80;12.18;;;;;;;13.88;87.75;101420.41;10539601;28;20515;-60
2021/07/01 09:08:12;;;;;;;31.77;12.85;;;;;;;14.06;88.42;101418.44;10547448;28;20051;-59
2021/07/01 09:13:14;;;;;;;32.55;13.93;;;;;;;14.11;88.67;101421.63;10548114;28;20052;-59
2021/07/01 09:18:17;;;;;;;21.33;11.48;;;;;;;14.04;88.34;101419.47;10546818;28;20048;-59
2021/07/01 09:23:22;;;;;;;22.25;10.55;;;;;;;13.89;88.62;101424.75;10547000;28;20396;-60
2021/07/01 09:28:25;;;;;;;21.15;10.88;;;;;;;14.13;87.66;101422.38;10546612;28;20051;-59
2021/07/01 09:33:27;;;;;;;30.35;13.82;;;;;;;13.95;89.55;101418.25;10547371;28;20051;-59
2021/07/01 09:38:30;;;;;;;27.52;13.05;;;;;;;14.12;89.16;101419.81;10546159;28;20097;-60
2021/07/01 09:43:32;;;;;;;23.67;11.57;;;;;;;14.17;88.37;101425.69;10545938;28;20055;-60
2021/07/01 09:48:36;;;;;;;26.88;13.13;;;;;;;14.03;88.33;101434.41;10546546;28;20495;-59
2021/07/01 09:53:40;;;;;;;18.65;11.05;;;;;;;14.06;88.45;101433.38;10545659;28;20044;-59
2021/07/01 09:58:53;;;;;;;28.10;14.57;;;;;;;14.23;87.30;101435.81;10546669;28;20044;-59
2021/07/01 10:03:57;;;;;;;23.85;12.52;;;;;;;13.98;88.12;101435.66;10545152;28;20060;-59
2021/07/01 10:09:00;;;;;;;26.38;14.20;;;;;;;13.98;89.91;101440.91;10546026;28;20044;-59
2021/07/01 10:14:23;;;;;;;32.30;14.27;;;;;;;14.11;87.84;101447.94;10545136;28;20040;-59
2021/07/01 10:19:28;;;;;;;35.20;15.38;;;;;;;14.28;88.06;101460.06;10543954;28;20506;-59
2021/07/01 10:24:32;;;;;;;36.13;15.23;;;;;;;14.15;87.37;101460.94;10543885;28;20392;-59
2021/07/01 10:29:39;;;;;;;29.73;13.07;;;;;;;14.38;87.46;101457.72;10545166;28;20582;-60
2021/07/01 10:34:48;;;;;;;34.47;15.90;;;;;;;14.34;88.65;101469.41;10545280;28;20059;-60
2021/07/01 10:39:52;;;;;;;26.83;13.90;;;;;;;14.12;88.68;101459.31;10544652;28;20052;-59
2021/07/01 10:45:08;;;;;;;28.13;13.68;;;;;;;13.98;89.21;101454.06;10543752;28;20059;-59
2021/07/01 10:50:20;;;;;;;24.10;14.18;;;;;;;14.30;89.01;101463.44;10544356;28;20479;-60
2021/07/01 10:55:23;;;;;;;28.90;15.75;;;;;;;14.33;88.76;101454.53;10544360;28;20044;-60
2021/07/01 11:00:46;;;;;;;27.95;13.38;;;;;;;14.58;85.33;101463.50;10544120;28;20075;-59
2021/07/01 11:06:03;;;;;;;29.05;13.30;;;;;;;14.42;87.48;101463.63;10543901;28;20076;-59
2021/07/01 11:11:19;;;;;;;21.75;11.50;;;;;;;14.48;88.04;101463.25;10543646;28;20056;-60
2021/07/01 11:16:41;;;;;;;25.67;15.65;;;;;;;14.35;87.76;101463.16;10543423;28;20044;-60
2021/07/01 11:21:51;;;;;;;25.45;13.90;;;;;;;14.39;88.10;101475.22;10543214;28;20434;-59
2021/07/01 11:26:58;;;;;;;28.27;14.93;;;;;;;14.31;87.39;101469.59;10540959;28;20040;-59
2021/07/01 11:32:00;;;;;;;29.23;15.23;;;;;;;14.44;85.86;101469.63;10542093;28;20059;-59
2021/07/01 11:37:03;;;;;;;33.97;17.13;;;;;;;14.54;88.71;101468.13;10541300;28;20084;-60
2021/07/01 11:42:06;;;;;;;22.83;12.68;;;;;;;14.69;86.81;101468.97;10542218;28;20055;-60
2021/07/01 11:47:09;;;;;;;30.58;14.27;;;;;;;14.60;87.18;101466.94;10542990;28;20051;-59
2021/07/01 11:52:12;;;;;;;29.63;14.10;;;;;;;14.45;86.98;101473.97;10542003;28;20040;-59
2021/07/01 11:57:14;;;;;;;25.77;13.32;;;;;;;14.33;88.14;101472.97;10541586;28;20040;-59
2021/07/01 12:02:18;;;;;;;29.77;14.77;;;;;;;14.18;89.48;101472.13;10542148;28;20044;-59
2021/07/01 12:07:26;;;;;;;21.98;11.93;;;;;;;14.39;86.82;101476.97;10540437;28;20056;-59
2021/07/01 12:12:28;;;;;;;24.77;12.98;;;;;;;14.34;88.75;101482.56;10541470;28;20071;-59
2021/07/01 12:17:52;;;;;;;35.63;15.52;;;;;;;14.57;88.58;101488.16;10540762;28;20127;-59
2021/07/01 12:22:55;;;;;;;36.92;16.10;;;;;;;14.61;87.26;101476.53;10540574;28;20593;-59
2021/07/01 12:28:06;;;;;;;28.02;14.48;;;;;;;14.81;85.85;101486.63;10522577;28;20101;-60
2021/07/01 12:33:28;;;;;;;;;;;;;;;14.95;86.06;101484.91;10541388;28;20048;-59
2021/07/01 12:38:30;;;;;;;27.30;15.02;;;;;;;14.78;86.79;101480.72;10539912;28;19927;-59
2021/07/01 12:43:47;;;;;;;26.25;13.65;;;;;;;14.84;83.53;101486.44;10539994;28;20476;-60
2021/07/01 12:48:49;;;;;;;25.52;13.75;;;;;;;14.76;85.27;101494.00;10539918;28;20487;-59
2021/07/01 12:53:51;;;;;;;28.75;15.30;;;;;;;15.12;85.86;101489.06;10539714;28;20396;-60
2021/07/01 12:58:54;;;;;;;32.45;15.95;;;;;;;15.15;86.19;101481.81;10538632;28;20051;-59
2021/07/01 13:03:57;;;;;;;22.65;13.35;;;;;;;15.35;84.89;101482.28;10539629;28;20060;-59
2021/07/01 13:08:59;;;;;;;23.45;12.63;;;;;;;15.05;84.04;101488.63;10539453;28;20052;-59
2021/07/01 13:14:02;;;;;;;28.48;16.85;;;;;;;15.10;86.26;101498.88;10539412;28;20044;-60
2021/07/01 13:19:20;;;;;;;32.10;17.58;;;;;;;15.01;87.73;101500.31;10539201;28;20101;-59
2021/07/01 13:24:23;;;;;;;23.50;14.57;;;;;;;15.41;86.29;101500.31;10539258;28;20487;-59
2021/07/01 13:29:42;;;;;;;30.25;16.63;;;;;;;15.37;86.43;101504.13;10538194;28;20048;-60
2021/07/01 13:34:44;;;;;;;21.48;14.18;;;;;;;15.20;87.91;101508.72;10539123;28;20048;-59
2021/07/01 13:39:48;;;;;;;25.55;14.70;;;;;;;15.44;85.95;101510.69;10539652;28;20044;-60
2021/07/01 13:45:02;;;;;;;33.30;16.88;;;;;;;15.52;85.73;101508.38;10539111;28;20060;-60
2021/07/01 13:50:04;;;;;;;25.60;14.48;;;;;;;15.56;86.37;101515.13;10539970;28;20392;-59
2021/07/01 13:55:23;;;;;;;25.33;13.63;;;;;;;15.51;84.88;101513.75;10546566;28;20055;-59
2021/07/01 14:00:28;;;;;;;28.90;14.02;;;;;;;15.54;85.58;101509.13;10547046;28;20048;-59
2021/07/01 14:05:34;;;;;;;27.88;14.07;;;;;;;16.11;84.43;101507.09;10546280;28;20085;-60
2021/07/01 14:10:38;;;;;;;22.38;12.20;;;;;;;15.72;83.39;101516.75;10546156;28;20097;-60
2021/07/01 14:15:40;;;;;;;26.55;13.90;;;;;;;15.55;85.32;101520.50;10545599;28;20060;-59
2021/07/01 14:20:43;;;;;;;34.33;14.05;;;;;;;15.85;83.44;101524.72;10544439;28;20483;-60
2021/07/01 14:25:47;;;;;;;25.42;12.55;;;;;;;15.85;84.48;101528.19;10545286;28;20556;-60
2021/07/01 14:30:52;;;;;;;27.42;13.10;;;;;;;15.69;82.53;101528.34;10543967;28;20500;-59
2021/07/01 14:36:28;;;;;;;32.50;13.77;;;;;;;15.81;82.33;101516.16;10545617;28;20044;-59
2021/07/01 14:41:41;;;;;;;31.23;13.73;;;;;;;15.64;82.90;101521.72;10512060;28;20055;-60
2021/07/01 14:46:45;;;;;;;30.23;13.23;;;;;;;16.03;82.31;101523.44;10544342;28;20389;-59
2021/07/01 14:51:56;;;;;;;41.30;14.05;;;;;;;15.64;82.13;101525.19;10544574;28;20066;-59
2021/07/01 14:57:12;;;;;;;30.67;13.00;;;;;;;16.00;79.65;101517.53;10543857;28;20376;-59
2021/07/01 15:02:29;;;;;;;35.45;13.52;;;;;;;16.00;83.65;101525.47;10544498;28;20044;-59
2021/07/01 15:07:41;;;;;;;35.33;13.40;;;;;;;15.67;82.29;101524.13;10543680;28;20488;-59
2021/07/01 15:13:07;;;;;;;29.50;13.25;;;;;;;16.09;83.78;101528.31;10543584;28;20048;-59
2021/07/01 15:18:10;;;;;;;31.58;14.85;;;;;;;15.85;81.01;101522.91;10543370;28;20094;-59
2021/07/01 15:23:12;;;;;;;28.13;11.68;;;;;;;15.81;83.73;101536.44;10541818;28;20048;-59
2021/07/01 15:28:14;;;;;;;40.70;15.52;;;;;;;15.47;82.24;101538.69;10542989;28;20059;-59
2021/07/01 15:33:17;;;;;;;30.30;14.77;;;;;;;15.57;82.75;101527.38;10542091;28;20040;-59
2021/07/01 15:38:19;;;;;;;26.15;14.70;;;;;;;15.68;81.34;101531.09;10540768;28;20055;-59
2021/07/01 15:43:24;;;;;;;39.17;15.27;;;;;;;15.65;81.21;101532.16;10541993;28;20052;-60
2021/07/01 15:48:28;;;;;;;38.97;14.40;;;;;;;15.81;79.98;101539.06;10542054;28;20405;-60
2021/07/01 15:53:30;;;;;;;32.63;15.30;;;;;;;15.81;78.89;101539.06;10541878;28;20048;-60
2021/07/01 15:58:32;;;;;;;28.90;14.27;;;;;;;15.75;81.14;101538.53;10541660;28;20051;-59
2021/07/01 16:03:35;;;;;;;22.70;13.50;;;;;;;15.93;80.88;101539.06;10540395;28;20131;-60
2021/07/01 16:08:39;;;;;;;42.22;16.10;;;;;;;15.67;80.95;101540.81;10541676;28;20048;-59
2021/07/01 16:13:43;;;;;;;26.92;14.43;;;;;;;15.72;81.77;101536.06;10540728;28;20052;-59
2021/07/01 16:18:48;;;;;;;27.85;14.40;;;;;;;15.88;80.85;101546.47;10540590;28;20430;-59
2021/07/01 16:23:52;;;;;;;28.75;13.18;;;;;;;15.65;80.77;101547.13;10540361;28;20486;-59
2021/07/01 16:28:57;;;;;;;31.77;13.75;;;;;;;15.61;83.56;101555.25;10540293;28;20044;-59
2021/07/01 16:34:01;;;;;;;23.95;11.82;;;;;;;15.54;81.74;101551.34;10539091;28;20055;-60
2021/07/01 16:39:05;;;;;;;24.88;12.23;;;;;;;15.78;80.91;101543.63;10540117;28;20050;-60
2021/07/01 16:44:07;;;;;;;20.90;10.90;;;;;;;15.85;80.19;101540.53;10538966;28;20052;-59
2021/07/01 16:49:10;;;;;;;24.13;12.32;;;;;;;15.94;80.74;101538.13;10540149;28;20044;-59
2021/07/01 16:54:15;;;;;;;20.15;10.88;;;;;;;16.01;82.21;101543.84;10538853;28;20511;-59
2021/07/01 16:59:23;;;;;;;31.42;11.93;;;;;;;15.82;81.03;101540.75;10539565;28;20040;-59
2021/07/01 17:04:27;;;;;;;25.73;11.77;;;;;;;15.73;81.70;101545.66;10539635;28;20047;-60
2021/07/01 17:09:30;;;;;;;24.65;12.70;;;;;;;15.57;81.80;101556.41;10540026;28;20052;-59
2021/07/01 17:14:34;;;;;;;24.67;11.70;;;;;;;15.68;80.84;101558.34;10540120;28;20048;-59
2021/07/01 17:19:41;;;;;;;24.00;11.68;;;;;;;15.40;82.51;101551.44;10539365;28;20478;-60
2021/07/01 17:24:44;;;;;;;26.83;11.77;;;;;;;15.58;80.84;101555.50;10539563;28;20044;-59
2021/07/01 17:29:50;;;;;;;26.95;12.05;;;;;;;15.26;84.02;101556.75;10548391;28;20047;-59
2021/07/01 17:34:53;;;;;;;18.30;10.93;;;;;;;15.21;84.26;101551.75;10547506;28;20055;-60
2021/07/01 17:39:57;;;;;;;25.88;12.68;;;;;;;15.12;83.30;101549.72;10546252;28;20044;-59
2021/07/01 17:44:59;;;;;;;29.90;16.63;;;;;;;15.11;83.25;101550.66;10546249;28;20059;-60
2021/07/01 17:50:03;;;;;;;25.10;12.30;;;;;;;15.48;81.54;101551.75;10546373;28;20048;-60
2021/07/01 17:55:08;;;;;;;25.42;11.65;;;;;;;15.38;82.85;101553.28;10545451;28;20132;-60
2021/07/01 18:00:10;;;;;;;25.50;12.68;;;;;;;15.32;84.12;101556.34;10547170;28;20040;-60
2021/07/01 18:05:13;;;;;;;24.73;12.10;;;;;;;15.08;83.41;101557.00;10546107;28;20052;-59
2021/07/01 18:10:15;;;;;;;23.83;12.05;;;;;;;15.26;82.02;101552.31;10545753;28;20491;-60
2021/07/01 18:15:18;;;;;;;31.05;13.25;;;;;;;15.27;84.07;101556.66;10545822;28;20052;-60
2021/07/01 18:20:20;;;;;;;29.02;12.18;;;;;;;15.18;82.67;101550.19;10544955;28;20479;-60
2021/07/01 18:25:25;;;;;;;27.90;13.73;;;;;;;15.14;82.21;101553.94;10544262;28;20054;-59
2021/07/01 18:30:27;;;;;;;24.08;12.80;;;;;;;15.37;82.13;101565.66;10545193;28;20511;-60
2021/07/01 18:35:30;;;;;;;20.33;10.85;;;;;;;15.35;82.12;101556.16;10544342;28;20475;-60
2021/07/01 18:40:32;;;;;;;23.80;12.45;;;;;;;15.26;82.32;101551.47;10544811;28;20052;-59
2021/07/01 18:45:36;;;;;;;28.30;13.40;;;;;;;15.01;83.61;101556.56;10544579;28;20476;-59
2021/07/01 18:50:38;;;;;;;18.98;10.50;;;;;;;15.17;83.66;101551.13;10543638;28;20047;-60
2021/07/01 18:55:41;;;;;;;21.40;11.35;;;;;;;15.07;83.00;101557.09;10544228;28;20051;-60
2021/07/01 19:00:44;;;;;;;24.50;11.73;;;;;;;15.08;83.80;101564.03;10543279;28;20062;-59
2021/07/01 19:05:47;;;;;;;24.40;11.65;;;;;;;14.92;83.39;101557.13;10543950;28;20071;-60
2021/07/01 19:10:50;;;;;;;23.50;12.57;;;;;;;14.83;84.23;101561.19;10543821;28;20059;-60
2021/07/01 19:15:52;;;;;;;24.55;12.43;;;;;;;15.07;83.04;101567.66;10543503;28;20106;-59
2021/07/01 19:20:54;;;;;;;26.98;12.30;;;;;;;14.70;84.67;101570.81;10543221;28;20438;-59
2021/07/01 19:25:57;;;;;;;22.20;12.13;;;;;;;14.79;84.28;101570.25;10542842;28;20055;-60
2021/07/01 19:30:59;;;;;;;25.35;11.63;;;;;;;14.80;84.63;101579.84;10542928;28;20044;-59
2021/07/01 19:36:02;;;;;;;23.35;11.10;;;;;;;14.88;84.96;101576.72;10543252;28;20040;-60
2021/07/01 19:41:05;;;;;;;22.15;12.20;;;;;;;14.80;84.84;101579.84;10542742;28;20392;-59
2021/07/01 19:46:07;;;;;;;22.70;10.30;;;;;;;14.92;83.90;101566.84;10541759;28;20048;-60
2021/07/01 19:51:09;;;;;;;20.92;11.68;;;;;;;14.83;84.31;101570.91;10540305;28;20066;-59
2021/07/01 19:56:18;;;;;;;22.52;12.32;;;;;;;14.70;84.93;101576.09;10541713;28;20116;-59
2021/07/01 20:01:21;;;;;;;21.77;11.90;;;;;;;14.70;83.88;101578.72;10542029;28;20048;-60
2021/07/01 20:06:23;;;;;;;26.27;11.95;;;;;;;14.50;84.27;101590.47;10541237;28;20541;-59
2021/07/01 20:11:26;;;;;;;24.02;11.43;;;;;;;14.80;83.59;101593.00;10541644;28;20055;-60
2021/07/01 20:16:29;;;;;;;23.80;12.43;;;;;;;14.82;82.75;101599.03;10540264;28;20048;-59
2021/07/01 20:21:33;;;;;;;24.63;12.02;;;;;;;14.81;82.02;101602.63;10540749;28;20537;-60
2021/07/01 20:26:35;;;;;;;25.02;12.23;;;;;;;14.61;83.22;101600.41;10540629;28;20058;-60
2021/07/01 20:31:37;;;;;;;19.65;10.93;;;;;;;14.71;83.32;101603.28;10541186;28;20044;-60
2021/07/01 20:36:41;;;;;;;22.65;13.38;;;;;;;14.46;84.07;101600.34;10540299;28;20052;-60
2021/07/01 20:41:45;;;;;;;23.70;13.02;;;;;;;14.55;83.79;101604.19;10540342;28;20492;-60
2021/07/01 20:46:47;;;;;;;27.55;13.15;;;;;;;14.64;83.82;101608.94;10539772;28;20427;-60
2021/07/01 20:51:49;;;;;;;30.88;14.38;;;;;;;14.45;84.98;101609.19;10540060;28;20055;-59
2021/07/01 20:56:54;;;;;;;37.88;14.90;;;;;;;14.52;83.20;101606.19;10539647;28;20040;-59
2021/07/01 21:01:56;;;;;;;26.23;13.07;;;;;;;14.49;83.75;101600.16;10540143;28;20044;-60
2021/07/01 21:06:59;;;;;;;25.70;14.65;;;;;;;14.50;85.21;101607.09;10539233;28;20063;-60
2021/07/01 21:12:02;;;;;;;24.83;12.45;;;;;;;14.64;82.78;101605.44;10538523;28;20052;-59
2021/07/01 21:17:04;;;;;;;27.15;14.57;;;;;;;14.47;83.80;101604.69;10539954;28;20048;-60
2021/07/01 21:22:15;;;;;;;21.38;12.82;;;;;;;14.45;84.88;101603.06;10539619;28;20079;-59
2021/07/01 21:27:17;;;;;;;29.65;14.07;;;;;;;14.24;86.05;101594.66;10539475;28;20493;-59
2021/07/01 21:32:20;;;;;;;24.02;13.18;;;;;;;14.16;85.96;101595.16;10539261;28;20044;-59
2021/07/01 21:37:23;;;;;;;21.23;13.68;;;;;;;14.47;84.42;101594.16;10538554;28;20078;-60
2021/07/01 21:42:27;;;;;;;21.85;12.15;;;;;;;14.60;83.40;101604.78;10537829;28;20498;-59
2021/07/01 21:47:31;;;;;;;21.75;13.23;;;;;;;14.38;85.10;101602.59;10538831;28;20048;-59
2021/07/01 21:52:34;;;;;;;30.42;13.20;;;;;;;14.27;84.77;101613.78;10538791;28;20054;-60
2021/07/01 21:57:38;;;;;;;24.85;13.77;;;;;;;14.27;83.76;101608.53;10537292;28;20399;-59
2021/07/01 22:02:42;;;;;;;26.20;12.50;;;;;;;14.24;83.42;101600.81;10538616;28;20047;-60
2021/07/01 22:07:45;;;;;;;22.15;12.35;;;;;;;14.49;82.67;101601.94;10539431;28;20056;-60
2021/07/01 22:12:48;;;;;;;13.73;10.73;;;;;;;14.21;84.92;101597.50;10542248;28;20048;-59
2021/07/01 22:17:53;;;;;;;32.25;14.18;;;;;;;14.28;84.46;101599.66;10544286;28;20044;-60
2021/07/01 22:22:56;;;;;;;19.77;11.93;;;;;;;14.36;83.09;101601.84;10544867;28;20044;-60
2021/07/01 22:27:59;;;;;;;22.92;14.43;;;;;;;14.15;84.57;101601.34;10545622;28;20044;-59
2021/07/01 22:33:01;;;;;;;20.95;13.32;;;;;;;14.33;83.74;101595.94;10544936;28;20044;-59
2021/07/01 22:38:04;;;;;;;22.05;13.93;;;;;;;14.25;83.73;101597.22;10543785;28;20040;-59
2021/07/01 22:43:06;;;;;;;20.77;13.50;;;;;;;14.33;83.18;101598.56;10544904;28;20056;-59
2021/07/01 22:48:08;;;;;;;24.90;14.88;;;;;;;14.11;84.24;101603.31;10544553;28;20055;-60